This is the latest recevied weather packets stored in our database for station/object N0MR. If no packets are shown the sender has not sent any weather packets the latest 10 day(s).
| Time | Temp. | Humidity | Pressure | Rain* | Wind** | Luminosity | Snow |
|---|---|---|---|---|---|---|---|
| 1777582320 | 3.33° C | 60% | 1018.4 hPa | 0 mm | - | - | - |
| 1777581718 | 3.33° C | 59% | 1018.4 hPa | 0 mm | - | - | - |
| 1777581118 | 3.33° C | 59% | 1018.4 hPa | 0 mm | - | - | - |
| 1777580518 | 3.33° C | 58% | 1018.4 hPa | 0 mm | - | - | - |
| 1777579919 | 3.33° C | 58% | 1018.4 hPa | 0 mm | - | - | - |
| 1777579319 | 3.33° C | 59% | 1018.4 hPa | 0 mm | - | - | - |
| 1777578718 | 3.33° C | 59% | 1018.4 hPa | 0 mm | - | - | - |
| 1777578118 | 3.33° C | 58% | 1018.3 hPa | 0 mm | - | - | - |
| 1777577520 | 3.33° C | 58% | 1018.4 hPa | 0 mm | - | - | - |
| 1777576920 | 3.33° C | 58% | 1018.4 hPa | 0 mm | - | - | - |
| 1777576320 | 3.33° C | 60% | 1018.5 hPa | 0 mm | - | - | - |
| 1777575719 | 3.33° C | 60% | 1018.5 hPa | 0 mm | - | - | - |
| 1777575120 | 2.78° C | 60% | 1018.5 hPa | 0 mm | - | - | - |
| 1777574520 | 2.78° C | 60% | 1018.5 hPa | 0 mm | - | - | - |
| 1777573919 | 2.78° C | 61% | 1018.6 hPa | 0 mm | - | - | - |
| 1777573321 | 2.78° C | 61% | 1018.6 hPa | 0 mm | - | - | - |
| 1777572720 | 2.22° C | 64% | 1018.7 hPa | 0 mm | - | - | - |
| 1777572119 | 2.22° C | 64% | 1018.7 hPa | 0 mm | - | - | - |
| 1777571519 | 2.22° C | 63% | 1018.8 hPa | 0 mm | - | - | - |
| 1777570921 | 2.22° C | 63% | 1018.8 hPa | 0 mm | - | - | - |
| 1777570320 | 2.22° C | 60% | 1018.7 hPa | 0 mm | - | - | - |
| 1777569719 | 2.22° C | 60% | 1018.7 hPa | 0 mm | - | - | - |
| 1777569120 | 2.22° C | 62% | 1018.9 hPa | 0 mm | - | - | - |
| 1777568520 | 2.22° C | 62% | 1018.9 hPa | 0 mm | - | - | - |
| 1777567921 | 2.78° C | 60% | 1018.7 hPa | 0 mm | - | - | - |
* Rain latest hour (hover to see other rain measurements)
** Current wind speed in m/s (hover to see current wind gust speed)